createdAt,value
2023-05-21T00:05:54.880Z,94.98
2023-05-21T00:08:21.590Z,95.51
2023-05-21T00:10:48.253Z,96.39
2023-05-21T00:13:15.276Z,96.53
2023-05-21T00:15:42.817Z,97.10
2023-05-21T00:18:09.560Z,95.95
2023-05-21T00:20:37.436Z,96.50
2023-05-21T00:23:04.695Z,96.12
2023-05-21T00:25:31.791Z,96.72
2023-05-21T00:27:58.452Z,96.48
2023-05-21T00:30:25.253Z,97.36
2023-05-21T00:32:51.973Z,97.78
2023-05-21T00:35:19.580Z,97.95
2023-05-21T00:37:47.954Z,97.23
2023-05-21T00:40:14.959Z,97.95
2023-05-21T00:42:41.856Z,97.74
2023-05-21T00:45:09.126Z,97.90
2023-05-21T00:47:36.401Z,98.62
2023-05-21T00:50:04.766Z,97.57
2023-05-21T00:52:31.635Z,98.20
2023-05-21T00:54:58.425Z,97.90
2023-05-21T00:57:27.427Z,98.42
2023-05-21T00:59:54.612Z,98.05
2023-05-21T01:02:24.554Z,97.50
2023-05-21T01:04:54.343Z,97.25
2023-05-21T01:07:21.075Z,97.93
2023-05-21T01:09:48.361Z,98.22
2023-05-21T01:12:15.572Z,98.58
2023-05-21T01:14:42.765Z,99.22
2023-05-21T01:17:10.689Z,99.08
2023-05-21T01:19:37.788Z,98.81
2023-05-21T01:24:39.632Z,99.76
2023-05-21T01:27:07.927Z,100.00
2023-05-21T01:29:34.692Z,100.00
2023-05-21T01:32:11.589Z,100.00
2023-05-21T01:34:47.948Z,100.00
2023-05-21T01:37:22.950Z,100.00
2023-05-21T01:39:57.580Z,100.00
2023-05-21T01:42:26.001Z,100.00
2023-05-21T01:44:56.001Z,100.00
2023-05-21T01:47:24.606Z,100.00
2023-05-21T01:49:52.651Z,100.00
2023-05-21T01:54:58.218Z,100.00
2023-05-21T01:57:24.957Z,100.00
2023-05-21T01:59:53.612Z,100.00
2023-05-21T02:02:20.389Z,100.00
2023-05-21T02:04:47.075Z,100.00
2023-05-21T02:07:15.370Z,100.00
2023-05-21T02:09:42.027Z,100.00
2023-05-21T02:12:08.828Z,100.00
2023-05-21T02:17:09.610Z,100.00
2023-05-21T02:19:36.357Z,100.00
2023-05-21T02:22:03.077Z,100.00
2023-05-21T02:24:29.755Z,100.00
2023-05-21T02:26:56.517Z,100.00
2023-05-21T02:29:23.215Z,100.00
2023-05-21T02:39:41.434Z,100.00
2023-05-21T02:42:08.105Z,100.00
2023-05-21T02:44:34.754Z,100.00
2023-05-21T02:47:01.490Z,100.00
2023-05-21T02:49:28.161Z,100.00
2023-05-21T02:51:54.842Z,100.00
2023-05-21T02:54:21.571Z,100.00
2023-05-21T02:56:48.282Z,100.00
2023-05-21T02:59:14.987Z,100.00
2023-05-21T03:04:18.704Z,100.00
2023-05-21T03:06:46.669Z,100.00
2023-05-21T03:09:13.423Z,100.00
2023-05-21T03:11:40.071Z,100.00
2023-05-21T03:16:41.919Z,100.00
2023-05-21T03:19:08.720Z,100.00
2023-05-21T03:21:36.403Z,100.00
2023-05-21T03:24:04.783Z,100.00
2023-05-21T03:26:31.706Z,100.00
2023-05-21T03:28:58.726Z,100.00
2023-05-21T03:31:25.793Z,100.00
2023-05-21T03:33:52.923Z,100.00
2023-05-21T03:36:20.542Z,100.00
2023-05-21T03:38:47.295Z,100.00
2023-05-21T03:41:14.053Z,100.00
2023-05-21T03:43:40.874Z,100.00
2023-05-21T03:46:07.635Z,100.00
2023-05-21T03:48:34.353Z,100.00
2023-05-21T03:51:01.800Z,100.00
2023-05-21T03:53:28.516Z,100.00
2023-05-21T03:55:55.652Z,100.00
2023-05-21T03:58:23.026Z,100.00
2023-05-21T04:00:49.980Z,100.00
2023-05-21T04:03:16.840Z,100.00
2023-05-21T04:05:43.876Z,100.00
2023-05-21T04:08:10.976Z,100.00
2023-05-21T04:10:37.625Z,100.00
2023-05-21T04:13:04.390Z,100.00
2023-05-21T04:15:31.235Z,100.00
2023-05-21T04:17:58.835Z,100.00
2023-05-21T04:20:25.596Z,100.00
2023-05-21T04:22:52.307Z,100.00
2023-05-21T04:25:20.608Z,100.00
2023-05-21T04:27:48.274Z,100.00
2023-05-21T04:30:15.077Z,100.00
2023-05-21T04:32:41.984Z,100.00
2023-05-21T04:37:46.674Z,100.00
2023-05-21T04:40:18.532Z,100.00
2023-05-21T04:42:46.909Z,100.00
2023-05-21T04:45:14.070Z,100.00
2023-05-21T04:47:43.311Z,100.00
2023-05-21T04:50:13.233Z,100.00
2023-05-21T04:52:40.505Z,100.00
2023-05-21T04:55:08.387Z,100.00
2023-05-21T04:57:35.947Z,100.00
2023-05-21T05:00:04.127Z,100.00
2023-05-21T05:02:30.849Z,100.00
2023-05-21T05:04:57.624Z,100.00
2023-05-21T05:07:24.343Z,100.00
2023-05-21T05:09:51.071Z,100.00
2023-05-21T05:12:17.746Z,100.00
2023-05-21T05:14:44.455Z,100.00
2023-05-21T05:17:14.870Z,100.00
2023-05-21T05:19:41.619Z,100.00
2023-05-21T05:22:08.311Z,100.00
2023-05-21T05:24:34.972Z,100.00
2023-05-21T05:27:01.851Z,100.00
2023-05-21T05:29:28.781Z,100.00
2023-05-21T05:31:55.655Z,100.00
2023-05-21T05:34:22.354Z,100.00
2023-05-21T05:36:49.116Z,100.00
2023-05-21T05:39:15.813Z,100.00
2023-05-21T05:41:42.505Z,100.00
2023-05-21T05:44:10.912Z,100.00
2023-05-21T05:46:37.965Z,100.00
2023-05-21T05:49:04.865Z,100.00
2023-05-21T05:51:31.908Z,100.00
2023-05-21T05:53:58.560Z,100.00
2023-05-21T05:56:25.251Z,100.00
2023-05-21T05:58:51.946Z,100.00
2023-05-21T06:01:19.599Z,100.00
2023-05-21T06:03:46.508Z,100.00
2023-05-21T06:06:13.468Z,100.00
2023-05-21T06:08:40.786Z,99.96
2023-05-21T06:11:07.551Z,99.15
2023-05-21T06:13:34.296Z,98.73
2023-05-21T06:16:01.207Z,98.38
2023-05-21T06:18:27.992Z,97.28
2023-05-21T06:23:32.905Z,97.48
2023-05-21T06:25:59.580Z,97.96
2023-05-21T06:28:26.431Z,97.16
2023-05-21T06:30:53.264Z,95.91
2023-05-21T06:33:20.135Z,93.86
2023-05-21T06:35:47.006Z,92.75
2023-05-21T06:38:13.791Z,91.40
2023-05-21T06:40:40.680Z,90.37
2023-05-21T06:43:07.398Z,89.58
2023-05-21T06:45:34.403Z,89.04
2023-05-21T06:48:01.332Z,88.83
2023-05-21T06:50:28.182Z,87.18
2023-05-21T06:52:55.117Z,86.25
2023-05-21T06:55:22.171Z,83.51
2023-05-21T06:57:48.941Z,83.48
2023-05-21T07:00:15.832Z,85.36
2023-05-21T07:02:42.550Z,83.52
2023-05-21T07:05:09.725Z,83.35
2023-05-21T07:07:37.098Z,82.31
2023-05-21T07:10:04.015Z,83.15
2023-05-21T07:12:30.719Z,84.19
2023-05-21T07:14:59.233Z,83.66
2023-05-21T07:17:26.201Z,83.35
2023-05-21T07:19:53.040Z,83.40
2023-05-21T07:22:19.896Z,83.87
2023-05-21T07:24:46.624Z,83.03
2023-05-21T07:27:24.702Z,82.40
2023-05-21T07:29:52.264Z,82.43
2023-05-21T07:32:19.003Z,80.79
2023-05-21T07:34:45.783Z,76.75
2023-05-21T07:37:13.203Z,77.33
2023-05-21T07:39:40.328Z,77.24
2023-05-21T07:42:07.029Z,77.32
2023-05-21T07:44:33.710Z,79.19
2023-05-21T07:47:00.451Z,78.80
2023-05-21T07:49:27.101Z,80.07
2023-05-21T07:51:53.793Z,76.58
2023-05-21T07:54:20.456Z,77.11
2023-05-21T07:56:47.099Z,76.18
2023-05-21T08:01:54.313Z,74.39
2023-05-21T08:04:21.267Z,75.79
2023-05-21T08:06:48.786Z,74.05
2023-05-21T08:09:15.551Z,73.75
2023-05-21T08:11:42.236Z,71.72
2023-05-21T08:14:09.017Z,73.34
2023-05-21T08:16:37.015Z,74.08
2023-05-21T08:19:03.991Z,75.43
2023-05-21T08:21:30.904Z,74.61
2023-05-21T08:23:57.635Z,74.16
2023-05-21T08:26:24.349Z,74.77
2023-05-21T08:28:51.109Z,72.84
2023-05-21T08:31:21.608Z,72.86
2023-05-21T08:33:56.646Z,74.22
2023-05-21T08:39:01.919Z,74.16
2023-05-21T08:41:31.673Z,73.47
2023-05-21T08:44:02.590Z,69.88
2023-05-21T08:46:33.569Z,71.91
2023-05-21T08:49:03.053Z,72.83
2023-05-21T08:51:31.426Z,70.30
2023-05-21T08:54:00.131Z,71.01
2023-05-21T08:56:27.530Z,70.41
2023-05-21T09:01:27.341Z,71.18
2023-05-21T09:04:04.978Z,72.79
2023-05-21T09:06:35.545Z,70.41
2023-05-21T09:09:15.609Z,71.78
2023-05-21T09:11:42.605Z,69.64
2023-05-21T09:14:11.089Z,68.46
2023-05-21T09:16:37.855Z,66.35
2023-05-21T09:19:04.908Z,64.77
2023-05-21T09:21:31.938Z,64.94
2023-05-21T09:24:00.216Z,63.69
2023-05-21T09:26:27.093Z,64.63
2023-05-21T09:28:58.208Z,63.01
2023-05-21T09:31:26.332Z,61.40
2023-05-21T09:33:53.647Z,61.24
2023-05-21T09:36:20.828Z,59.37
2023-05-21T09:38:52.324Z,58.74
2023-05-21T09:41:31.697Z,57.74
2023-05-21T09:44:02.799Z,58.41
2023-05-21T09:46:38.595Z,54.96
2023-05-21T09:49:05.336Z,56.00
2023-05-21T09:51:32.336Z,55.98
2023-05-21T09:53:59.444Z,56.90
2023-05-21T09:56:31.007Z,58.47
2023-05-21T09:59:04.591Z,58.56
2023-05-21T10:01:33.982Z,57.25
2023-05-21T10:04:02.964Z,57.34
2023-05-21T10:06:32.502Z,56.12
2023-05-21T10:09:07.296Z,54.11
2023-05-21T10:11:35.567Z,53.01
2023-05-21T10:16:48.168Z,55.48
2023-05-21T10:19:16.487Z,55.05
2023-05-21T10:21:45.069Z,54.76
2023-05-21T10:24:13.821Z,56.15
2023-05-21T10:26:41.997Z,52.36
2023-05-21T10:29:10.202Z,51.78
2023-05-21T10:34:16.787Z,52.34
2023-05-21T10:36:44.610Z,53.73
2023-05-21T10:39:13.184Z,51.50
2023-05-21T10:41:53.842Z,52.53
2023-05-21T10:44:37.990Z,51.07
2023-05-21T10:47:23.470Z,51.37
2023-05-21T10:50:08.262Z,52.13
2023-05-21T10:53:14.930Z,49.91
2023-05-21T10:56:15.784Z,51.03
2023-05-21T10:59:22.517Z,49.19
2023-05-21T11:01:53.900Z,47.61
2023-05-21T11:04:27.027Z,48.16
2023-05-21T11:06:53.814Z,47.75
2023-05-21T11:09:20.842Z,48.26
2023-05-21T11:11:58.264Z,46.65
2023-05-21T11:14:35.704Z,43.53
2023-05-21T11:17:03.840Z,45.14
2023-05-21T11:19:37.654Z,42.86
2023-05-21T11:22:35.006Z,42.79
2023-05-21T11:25:03.149Z,43.46
2023-05-21T11:27:42.585Z,43.02
2023-05-21T11:33:11.397Z,44.06
2023-05-21T11:35:46.550Z,42.97
2023-05-21T11:38:13.313Z,42.62
2023-05-21T11:40:50.933Z,44.26
2023-05-21T11:43:18.788Z,42.22
2023-05-21T11:45:47.419Z,41.84
2023-05-21T11:48:14.591Z,40.66
2023-05-21T11:50:42.660Z,41.95
2023-05-21T11:53:09.432Z,41.04
2023-05-21T11:55:43.884Z,41.89
2023-05-21T11:58:13.826Z,41.21
2023-05-21T12:00:40.786Z,44.68
2023-05-21T12:03:08.679Z,46.56
2023-05-21T12:05:50.346Z,45.05
2023-05-21T12:08:27.306Z,46.79
2023-05-21T12:11:02.033Z,46.58
2023-05-21T12:13:29.046Z,45.80
2023-05-21T12:15:55.861Z,46.84
2023-05-21T12:18:22.773Z,46.73
2023-05-21T12:20:52.262Z,48.26
2023-05-21T12:23:20.859Z,47.42
2023-05-21T12:25:47.655Z,44.73
2023-05-21T12:28:14.667Z,42.97
2023-05-21T12:30:41.473Z,43.70
2023-05-21T12:33:08.263Z,43.28
2023-05-21T12:35:35.166Z,43.12
2023-05-21T12:38:03.178Z,44.14
2023-05-21T12:40:39.968Z,42.12
2023-05-21T12:43:07.739Z,41.01
2023-05-21T12:45:34.794Z,41.09
2023-05-21T12:48:02.570Z,40.92
2023-05-21T12:50:29.406Z,41.48
2023-05-21T12:52:58.090Z,41.15
2023-05-21T12:55:26.485Z,41.84
2023-05-21T12:58:05.653Z,40.24
2023-05-21T13:00:33.314Z,41.96
2023-05-21T13:03:02.240Z,41.92
2023-05-21T13:05:29.204Z,41.22
2023-05-21T13:07:56.035Z,41.07
2023-05-21T13:10:23.069Z,41.54
2023-05-21T13:12:49.863Z,42.11
2023-05-21T13:15:17.270Z,41.36
2023-05-21T13:17:44.184Z,40.43
2023-05-21T13:20:21.655Z,40.63
2023-05-21T13:22:52.959Z,41.12
2023-05-21T13:25:21.858Z,39.44
2023-05-21T13:27:50.258Z,40.01
2023-05-21T13:30:17.348Z,39.80
2023-05-21T13:32:44.198Z,39.90
2023-05-21T13:35:12.401Z,40.00
2023-05-21T13:37:40.487Z,39.75
2023-05-21T13:40:14.648Z,40.29
2023-05-21T13:42:41.647Z,39.83
2023-05-21T13:45:10.549Z,40.72
2023-05-21T13:47:39.938Z,41.00
2023-05-21T13:50:08.324Z,41.33
2023-05-21T13:52:35.220Z,39.00
2023-05-21T13:55:02.138Z,38.94
2023-05-21T13:57:31.169Z,38.28
2023-05-21T13:59:58.616Z,38.89
2023-05-21T14:02:25.511Z,39.28
2023-05-21T14:04:52.380Z,37.73
2023-05-21T14:07:19.148Z,37.82
2023-05-21T14:09:47.742Z,37.22
2023-05-21T14:12:14.485Z,37.37
2023-05-21T14:14:41.795Z,37.69
2023-05-21T14:17:08.529Z,38.46
2023-05-21T14:19:35.328Z,38.95
2023-05-21T14:22:02.148Z,39.90
2023-05-21T14:24:28.871Z,40.35
2023-05-21T14:26:55.682Z,40.75
2023-05-21T14:29:22.392Z,41.08
2023-05-21T14:31:49.194Z,41.70
2023-05-21T14:34:16.038Z,41.96
2023-05-21T14:36:42.700Z,42.23
2023-05-21T14:39:09.400Z,42.25
2023-05-21T14:41:39.495Z,43.32
2023-05-21T14:44:06.243Z,43.71
2023-05-21T14:46:33.148Z,43.59
2023-05-21T14:49:00.819Z,43.50
2023-05-21T14:51:27.637Z,42.97
2023-05-21T14:53:54.497Z,43.53
2023-05-21T14:56:22.215Z,43.99
2023-05-21T14:58:49.089Z,44.48
2023-05-21T15:01:15.788Z,43.96
2023-05-21T15:03:42.539Z,44.20
2023-05-21T15:06:09.521Z,44.57
2023-05-21T15:08:36.318Z,43.95
2023-05-21T15:11:03.139Z,44.99
2023-05-21T15:13:29.883Z,44.70
2023-05-21T15:15:56.793Z,44.97
2023-05-21T15:18:24.995Z,44.71
2023-05-21T15:20:52.172Z,45.25
2023-05-21T15:23:18.942Z,45.09
2023-05-21T15:28:18.300Z,44.61
2023-05-21T15:30:45.130Z,44.35
2023-05-21T15:33:11.872Z,43.99
2023-05-21T15:35:39.261Z,44.80
2023-05-21T15:38:06.196Z,44.53
2023-05-21T15:40:33.002Z,45.76
2023-05-21T15:42:59.848Z,47.17
2023-05-21T15:45:26.560Z,48.83
2023-05-21T15:47:53.371Z,49.44
2023-05-21T15:50:20.125Z,48.15
2023-05-21T15:52:46.810Z,49.47
2023-05-21T15:55:14.396Z,48.15
2023-05-21T15:57:41.227Z,47.30
2023-05-21T16:00:09.246Z,48.08
2023-05-21T16:02:36.496Z,48.53
2023-05-21T16:05:03.707Z,49.55
2023-05-21T16:07:30.510Z,52.35
2023-05-21T16:09:57.247Z,52.69
2023-05-21T16:12:23.941Z,51.22
2023-05-21T16:14:50.631Z,51.03
2023-05-21T16:17:18.461Z,49.33
2023-05-21T16:19:45.473Z,50.08
2023-05-21T16:22:12.141Z,50.01
2023-05-21T16:24:38.847Z,52.79
2023-05-21T16:29:43.712Z,54.49
2023-05-21T16:32:10.922Z,53.55
2023-05-21T16:34:37.617Z,54.76
2023-05-21T16:37:04.510Z,55.58
2023-05-21T16:39:31.183Z,53.21
2023-05-21T16:41:59.891Z,53.56
2023-05-21T16:44:27.298Z,53.21
2023-05-21T16:46:54.096Z,52.81
2023-05-21T16:49:20.872Z,51.28
2023-05-21T16:51:47.606Z,51.53
2023-05-21T16:54:14.391Z,51.50
2023-05-21T16:56:41.118Z,53.71
2023-05-21T16:59:07.820Z,55.54
2023-05-21T17:01:34.645Z,55.78
2023-05-21T17:04:01.551Z,55.65
2023-05-21T17:06:28.594Z,54.85
2023-05-21T17:08:55.333Z,55.07
2023-05-21T17:11:22.023Z,53.92
2023-05-21T17:13:49.272Z,54.05
2023-05-21T17:16:16.287Z,53.75
2023-05-21T17:18:43.108Z,53.99
2023-05-21T17:21:10.292Z,54.57
2023-05-21T17:23:36.965Z,54.29
2023-05-21T17:26:03.661Z,54.98
2023-05-21T17:28:30.389Z,55.84
2023-05-21T17:30:57.087Z,55.20
2023-05-21T17:33:24.810Z,54.82
2023-05-21T17:35:51.497Z,54.43
2023-05-21T17:38:18.213Z,54.53
2023-05-21T17:40:44.991Z,54.69
2023-05-21T17:43:11.748Z,54.53
2023-05-21T17:45:38.695Z,54.36
2023-05-21T17:48:05.965Z,54.02
2023-05-21T17:50:32.706Z,54.43
2023-05-21T17:52:59.745Z,54.17
2023-05-21T17:55:26.497Z,54.94
2023-05-21T17:57:53.206Z,54.68
2023-05-21T18:00:20.239Z,54.59
2023-05-21T18:02:47.001Z,53.93
2023-05-21T18:07:45.108Z,53.76
2023-05-21T18:10:11.845Z,54.24
2023-05-21T18:12:39.588Z,54.01
2023-05-21T18:15:06.888Z,54.83
2023-05-21T18:17:33.772Z,55.69
2023-05-21T18:20:00.592Z,56.00
2023-05-21T18:22:27.235Z,56.16
2023-05-21T18:24:53.883Z,56.10
2023-05-21T18:30:02.508Z,55.40
2023-05-21T18:32:29.523Z,56.63
2023-05-21T18:37:34.948Z,57.55
2023-05-21T18:40:01.765Z,58.51
2023-05-21T18:42:28.556Z,58.17
2023-05-21T18:47:27.575Z,64.73
2023-05-21T18:49:54.329Z,65.02
2023-05-21T18:52:21.115Z,63.40
2023-05-21T18:54:47.873Z,63.75
2023-05-21T18:57:14.581Z,65.84
2023-05-21T18:59:41.523Z,67.10
2023-05-21T19:02:09.104Z,66.57
2023-05-21T19:04:36.113Z,66.70
2023-05-21T19:07:03.968Z,66.89
2023-05-21T19:09:30.710Z,67.76
2023-05-21T19:11:57.651Z,68.65
2023-05-21T19:14:24.330Z,70.34
2023-05-21T19:16:50.979Z,70.80
2023-05-21T19:19:17.731Z,70.77
2023-05-21T19:21:44.528Z,71.01
2023-05-21T19:24:11.315Z,72.19
2023-05-21T19:26:38.029Z,73.09
2023-05-21T19:29:04.749Z,74.37
2023-05-21T19:31:31.468Z,74.16
2023-05-21T19:33:58.129Z,72.57
2023-05-21T19:38:58.924Z,74.26
2023-05-21T19:41:26.659Z,73.52
2023-05-21T19:43:53.429Z,74.10
2023-05-21T19:46:20.774Z,75.38
2023-05-21T19:48:47.905Z,75.94
2023-05-21T19:51:14.760Z,76.94
2023-05-21T19:53:41.458Z,76.26
2023-05-21T19:56:08.214Z,77.25
2023-05-21T19:58:34.935Z,78.96
2023-05-21T20:01:01.709Z,79.94
2023-05-21T20:03:32.290Z,79.99
2023-05-21T20:05:59.036Z,80.23
2023-05-21T20:08:25.723Z,79.96
2023-05-21T20:10:52.443Z,80.35
2023-05-21T20:13:19.623Z,79.54
2023-05-21T20:15:48.145Z,79.75
2023-05-21T20:18:15.649Z,80.45
2023-05-21T20:20:42.972Z,80.18
2023-05-21T20:23:09.689Z,81.57
2023-05-21T20:25:36.461Z,81.45
2023-05-21T20:28:04.078Z,81.57
2023-05-21T20:30:36.398Z,81.51
2023-05-21T20:33:04.094Z,82.62
2023-05-21T20:35:31.105Z,82.75
2023-05-21T20:37:57.866Z,82.82
2023-05-21T20:40:24.794Z,84.04
2023-05-21T20:42:53.267Z,85.28
2023-05-21T20:45:21.278Z,85.61
2023-05-21T20:47:48.293Z,86.53
2023-05-21T20:50:17.961Z,85.10
2023-05-21T20:52:47.353Z,86.29
2023-05-21T20:55:14.920Z,85.98
2023-05-21T20:57:41.786Z,87.32
2023-05-21T21:00:11.203Z,87.87
2023-05-21T21:02:38.981Z,88.94
2023-05-21T21:05:06.403Z,90.26
2023-05-21T21:07:34.468Z,91.18
2023-05-21T21:10:01.614Z,90.62
2023-05-21T21:12:28.534Z,89.73
2023-05-21T21:14:55.585Z,89.05
2023-05-21T21:17:22.536Z,88.43
2023-05-21T21:19:49.365Z,88.64
2023-05-21T21:22:16.492Z,88.67
2023-05-21T21:24:43.216Z,88.95
2023-05-21T21:27:09.946Z,89.32
2023-05-21T21:29:36.675Z,89.98
2023-05-21T21:32:03.418Z,92.21
2023-05-21T21:34:30.162Z,92.05
2023-05-21T21:36:56.842Z,91.22
2023-05-21T21:39:23.548Z,92.13
2023-05-21T21:41:50.266Z,92.16
2023-05-21T21:44:16.988Z,92.21
2023-05-21T21:46:43.706Z,92.00
2023-05-21T21:49:10.451Z,91.05
2023-05-21T21:51:37.197Z,91.35
2023-05-21T21:54:04.231Z,90.41
2023-05-21T21:56:31.047Z,90.83
2023-05-21T21:58:57.750Z,91.65
2023-05-21T22:01:24.558Z,92.26
2023-05-21T22:03:51.341Z,92.78
2023-05-21T22:06:18.081Z,93.01
2023-05-21T22:08:44.866Z,91.51
2023-05-21T22:11:11.836Z,92.22
2023-05-21T22:13:38.745Z,92.85
2023-05-21T22:16:05.783Z,91.98
2023-05-21T22:18:40.719Z,93.54
2023-05-21T22:21:10.181Z,94.32
2023-05-21T22:23:38.125Z,95.30
2023-05-21T22:26:04.955Z,95.51
2023-05-21T22:28:31.753Z,95.19
2023-05-21T22:30:59.113Z,94.00
2023-05-21T22:33:26.962Z,94.07
2023-05-21T22:35:54.646Z,95.06
2023-05-21T22:38:21.693Z,94.58
2023-05-21T22:40:48.494Z,95.37
2023-05-21T22:43:15.221Z,96.18
2023-05-21T22:45:41.856Z,96.46
2023-05-21T22:48:09.793Z,96.56
2023-05-21T22:50:38.888Z,96.33
2023-05-21T22:53:06.630Z,96.29
2023-05-21T22:55:33.334Z,96.85
2023-05-21T22:58:00.044Z,97.05
2023-05-21T23:00:26.925Z,96.27
2023-05-21T23:02:54.738Z,95.83
2023-05-21T23:05:22.204Z,96.53
2023-05-21T23:07:49.131Z,96.94
2023-05-21T23:10:16.095Z,97.77
2023-05-21T23:12:42.874Z,97.70
2023-05-21T23:15:10.343Z,97.68
2023-05-21T23:17:37.906Z,97.72
2023-05-21T23:20:06.311Z,97.44
2023-05-21T23:22:33.066Z,98.41
2023-05-21T23:24:59.829Z,98.15
2023-05-21T23:27:26.579Z,98.83
2023-05-21T23:29:53.294Z,99.53
2023-05-21T23:32:20.196Z,100.00
2023-05-21T23:34:47.377Z,99.72
2023-05-21T23:37:14.197Z,100.00
2023-05-21T23:39:54.877Z,100.00
2023-05-21T23:42:21.653Z,100.00
2023-05-21T23:44:48.323Z,100.00
2023-05-21T23:47:15.024Z,100.00
2023-05-21T23:49:41.823Z,100.00
2023-05-21T23:52:08.752Z,100.00
2023-05-21T23:54:35.726Z,100.00
2023-05-21T23:57:02.438Z,100.00
2023-05-21T23:59:29.471Z,99.43
